Time;durP1;ratioP1;P1;durP2;ratioP2;P2;SDS_P1;SDS_P2;PMS_P1;PMS_P2;Temp;Humidity;BMP_temperature;BMP_pressure;BME280_temperature;BME280_humidity;BME280_pressure;Samples;Min_cycle;Max_cycle;Signal;HPM_P1;HPM_P2
2022/07/17 00:00:59;;;;;;;5.97;1.92;;;;;;;19.38;43.08;102563.94;5052963;28;20059;-67
2022/07/17 00:03:26;;;;;;;2.85;1.63;;;;;;;19.31;43.18;102571.72;5052639;28;20076;-67
2022/07/17 00:05:53;;;;;;;6.13;1.63;;;;;;;19.23;43.03;102576.91;5052954;28;20041;-67
2022/07/17 00:08:20;;;;;;;3.28;1.30;;;;;;;19.15;43.07;102566.63;5052851;28;20048;-67
2022/07/17 00:10:47;;;;;;;5.65;2.00;;;;;;;19.11;43.46;102569.72;5052647;28;20121;-67
2022/07/17 00:13:17;;;;;;;4.38;1.60;;;;;;;19.07;43.44;102565.53;5052253;28;20045;-67
2022/07/17 00:15:44;;;;;;;5.93;1.65;;;;;;;19.03;43.31;102564.91;5052135;28;21341;-67
2022/07/17 00:18:10;;;;;;;4.15;1.50;;;;;;;19.00;43.36;102571.47;5052365;28;20511;-67
2022/07/17 00:20:37;;;;;;;5.30;1.65;;;;;;;18.97;43.77;102574.41;5052632;28;20037;-67
2022/07/17 00:23:07;;;;;;;4.13;1.67;;;;;;;18.94;43.78;102566.50;5051725;28;20045;-67
2022/07/17 00:25:34;;;;;;;4.13;1.83;;;;;;;18.91;43.40;102566.75;5052431;28;20048;-66
2022/07/17 00:28:01;;;;;;;5.15;1.90;;;;;;;18.88;43.76;102561.53;5052005;28;20080;-67
2022/07/17 00:30:28;;;;;;;4.75;2.30;;;;;;;18.85;43.98;102569.94;5052398;28;20116;-67
2022/07/17 00:32:55;;;;;;;3.30;1.92;;;;;;;18.80;43.72;102566.72;5052084;28;20549;-67
2022/07/17 00:35:22;;;;;;;5.10;2.00;;;;;;;18.77;44.15;102568.81;5052304;28;20513;-67
2022/07/17 00:37:49;;;;;;;6.55;2.25;;;;;;;18.73;43.67;102568.19;5052249;28;20055;-67
2022/07/17 00:40:21;;;;;;;3.67;2.22;;;;;;;18.68;44.26;102559.53;5051659;28;20522;-67
2022/07/17 00:42:51;;;;;;;4.10;2.05;;;;;;;18.65;44.12;102563.34;5052006;28;20045;-67
2022/07/17 00:45:18;;;;;;;3.90;2.20;;;;;;;18.61;44.21;102561.84;5052225;28;20051;-67
2022/07/17 00:47:59;;;;;;;4.22;1.90;;;;;;;18.58;44.42;102563.88;5051847;28;20083;-67
2022/07/17 00:50:32;;;;;;;4.75;2.17;;;;;;;18.55;44.27;102561.41;5051944;28;20041;-66
2022/07/17 00:53:01;;;;;;;3.22;2.10;;;;;;;18.51;44.33;102557.19;5051581;28;20072;-66
2022/07/17 00:55:29;;;;;;;7.30;2.00;;;;;;;18.49;44.71;102561.88;5051738;28;20512;-66
2022/07/17 00:58:20;;;;;;;4.68;2.55;;;;;;;18.47;44.56;102561.13;5051461;28;20053;-66
2022/07/17 01:00:48;;;;;;;5.45;2.35;;;;;;;18.43;44.73;102561.34;5051927;28;20124;-67
2022/07/17 01:03:20;;;;;;;5.10;2.33;;;;;;;18.41;44.64;102563.34;5051744;28;20041;-66
2022/07/17 01:05:47;;;;;;;7.60;2.47;;;;;;;18.37;44.57;102559.13;5052083;28;20044;-66
2022/07/17 01:08:13;;;;;;;5.97;2.22;;;;;;;18.34;44.70;102562.06;5051254;28;20252;-66
2022/07/17 01:10:40;;;;;;;5.88;2.30;;;;;;;18.32;44.97;102560.44;5052093;28;20045;-66
2022/07/17 01:13:11;;;;;;;3.90;2.30;;;;;;;18.27;44.76;102557.22;5051496;28;20041;-66
2022/07/17 01:15:40;;;;;;;4.18;2.30;;;;;;;18.25;44.82;102565.50;5051157;28;20486;-66
2022/07/17 01:18:09;;;;;;;3.50;2.33;;;;;;;18.22;45.14;102557.56;5051656;28;20044;-66
2022/07/17 01:20:37;;;;;;;4.68;2.42;;;;;;;18.20;44.93;102556.81;5051259;28;20491;-66
2022/07/17 01:23:07;;;;;;;3.65;2.15;;;;;;;18.16;44.96;102555.31;5050752;28;20047;-65
2022/07/17 01:25:35;;;;;;;4.65;2.45;;;;;;;18.10;44.92;102547.63;5051664;28;20041;-65
2022/07/17 01:28:02;;;;;;;3.97;2.30;;;;;;;18.06;45.08;102544.28;5051268;28;20045;-65
2022/07/17 01:30:29;;;;;;;5.45;2.60;;;;;;;18.01;45.24;102553.75;5051827;28;20076;-65
2022/07/17 01:32:56;;;;;;;4.90;2.50;;;;;;;17.98;45.58;102551.28;5050677;28;20544;-65
2022/07/17 01:35:22;;;;;;;5.57;2.38;;;;;;;17.94;45.12;102550.63;5050773;28;20122;-65
2022/07/17 01:37:49;;;;;;;3.30;2.10;;;;;;;17.92;45.52;102557.19;5051266;28;20044;-65
2022/07/17 01:40:17;;;;;;;3.10;2.20;;;;;;;17.88;45.46;102561.97;5051562;28;20047;-65
2022/07/17 01:42:48;;;;;;;4.38;2.40;;;;;;;17.85;45.47;102558.63;5051991;28;20033;-65
2022/07/17 01:45:16;;;;;;;4.18;2.35;;;;;;;17.80;45.71;102561.66;5051236;28;20048;-65
2022/07/17 01:47:43;;;;;;;7.80;2.65;;;;;;;17.77;45.94;102560.03;5051324;28;20037;-65
2022/07/17 01:50:11;;;;;;;3.70;1.83;;;;;;;17.73;46.07;102558.53;5049840;28;20362;-65
2022/07/17 01:52:41;;;;;;;6.72;2.50;;;;;;;17.70;46.28;102563.31;5050696;28;20403;-65
2022/07/17 01:55:11;;;;;;;4.95;2.25;;;;;;;17.65;46.34;102557.31;5050610;28;20049;-65
2022/07/17 01:57:38;;;;;;;5.15;2.28;;;;;;;17.59;46.10;102550.50;5051057;28;20411;-65
2022/07/17 02:00:08;;;;;;;5.32;2.20;;;;;;;17.55;46.40;102553.53;5050977;28;20406;-65
2022/07/17 02:02:38;;;;;;;5.45;2.22;;;;;;;17.44;46.40;102552.47;5051398;28;20102;-66
2022/07/17 02:05:05;;;;;;;6.43;2.15;;;;;;;17.36;46.75;102545.88;5050994;28;20044;-65
2022/07/17 02:07:33;;;;;;;3.55;2.17;;;;;;;17.29;46.65;102548.16;5050963;28;20509;-65
2022/07/17 02:09:59;;;;;;;5.85;3.05;;;;;;;17.25;46.72;102551.22;5051525;28;20482;-65
2022/07/17 02:12:26;;;;;;;4.97;2.35;;;;;;;17.23;46.59;102551.31;5051195;28;20047;-65
2022/07/17 02:14:52;;;;;;;4.07;2.33;;;;;;;17.23;46.80;102555.88;5051064;28;20501;-65
2022/07/17 02:17:19;;;;;;;5.63;2.05;;;;;;;17.24;46.94;102557.63;5050790;28;20033;-65
2022/07/17 02:19:45;;;;;;;5.88;2.20;;;;;;;17.24;46.64;102568.47;5050635;28;20045;-65
2022/07/17 02:22:12;;;;;;;5.90;2.05;;;;;;;17.21;46.63;102566.84;5050590;28;20029;-66
2022/07/17 02:24:39;;;;;;;5.38;2.10;;;;;;;17.21;46.80;102566.84;5050658;28;20055;-65
2022/07/17 02:27:05;;;;;;;3.65;2.20;;;;;;;17.19;46.71;102560.66;5050802;28;20049;-66
2022/07/17 02:29:32;;;;;;;6.72;2.78;;;;;;;17.18;46.74;102558.06;5050681;28;20491;-66
2022/07/17 02:31:58;;;;;;;3.10;2.00;;;;;;;17.18;47.07;102568.94;5050174;28;20037;-66
2022/07/17 02:34:25;;;;;;;4.72;2.20;;;;;;;17.15;46.98;102560.03;5050897;28;20063;-65
2022/07/17 02:36:51;;;;;;;4.63;2.33;;;;;;;17.14;46.78;102557.41;5050727;28;20470;-65
2022/07/17 02:39:18;;;;;;;4.57;2.00;;;;;;;17.11;46.67;102553.06;5050942;28;20049;-64
2022/07/17 02:41:45;;;;;;;4.65;2.22;;;;;;;17.07;46.57;102547.94;5050294;28;20053;-65
2022/07/17 02:44:11;;;;;;;3.83;2.30;;;;;;;17.01;46.81;102557.41;5050839;28;20035;-65
2022/07/17 02:46:38;;;;;;;6.40;2.58;;;;;;;16.94;46.77;102556.09;5054472;28;20041;-65
2022/07/17 02:49:04;;;;;;;5.05;2.42;;;;;;;16.91;46.93;102555.44;5053046;28;20037;-65
2022/07/17 02:51:31;;;;;;;6.70;2.60;;;;;;;16.86;46.83;102555.78;5054272;28;20041;-64
2022/07/17 02:53:58;;;;;;;5.78;2.30;;;;;;;16.82;46.99;102557.81;5056675;28;20120;-64
2022/07/17 02:56:25;;;;;;;6.63;2.58;;;;;;;16.79;46.88;102563.47;5056313;28;20136;-66
2022/07/17 02:58:51;;;;;;;5.95;2.72;;;;;;;16.74;47.15;102560.22;5056675;28;20598;-65
2022/07/17 03:01:18;;;;;;;3.58;2.70;;;;;;;16.71;47.26;102563.13;5055589;28;20124;-65
2022/07/17 03:03:45;;;;;;;6.45;2.53;;;;;;;16.69;47.21;102569.66;5057231;28;20043;-65
2022/07/17 03:06:12;;;;;;;5.68;2.60;;;;;;;16.67;47.18;102566.16;5054269;28;20040;-67
2022/07/17 03:08:39;;;;;;;4.18;3.00;;;;;;;16.67;47.04;102568.88;5053609;28;20047;-65
2022/07/17 03:11:06;;;;;;;5.88;2.55;;;;;;;16.63;47.50;102560.06;5053826;28;20132;-65
2022/07/17 03:13:32;;;;;;;5.95;2.55;;;;;;;16.62;47.52;102560.16;5053417;28;20108;-65
2022/07/17 03:15:59;;;;;;;6.57;2.53;;;;;;;16.58;47.66;102564.94;5054006;28;20048;-64
2022/07/17 03:18:25;;;;;;;4.75;2.60;;;;;;;16.57;47.74;102575.88;5052529;28;20037;-65
2022/07/17 03:20:52;;;;;;;3.55;2.40;;;;;;;16.56;47.65;102571.44;5053779;28;20053;-64
2022/07/17 03:23:19;;;;;;;8.23;2.65;;;;;;;16.55;47.70;102569.69;5052481;28;20384;-64
2022/07/17 03:25:46;;;;;;;7.30;2.75;;;;;;;16.52;47.82;102566.22;5053343;28;20068;-65
2022/07/17 03:28:12;;;;;;;5.18;3.00;;;;;;;16.48;47.98;102563.84;5053667;28;20491;-65
2022/07/17 03:30:39;;;;;;;5.97;3.15;;;;;;;16.47;48.07;102568.38;5053812;28;20255;-65
2022/07/17 03:33:10;;;;;;;4.93;2.90;;;;;;;16.46;48.15;102573.91;5053260;28;20490;-65
2022/07/17 03:35:36;;;;;;;5.30;3.30;;;;;;;16.44;48.22;102584.88;5053585;28;20045;-65
2022/07/17 03:38:03;;;;;;;7.07;3.40;;;;;;;16.41;48.22;102578.78;5053561;28;20120;-64
2022/07/17 03:40:30;;;;;;;7.03;3.40;;;;;;;16.34;48.15;102578.31;5053526;28;20056;-65
2022/07/17 03:42:59;;;;;;;7.22;3.35;;;;;;;16.31;48.59;102575.78;5052878;28;20501;-65
2022/07/17 03:45:26;;;;;;;6.10;3.13;;;;;;;16.29;48.51;102575.03;5053328;28;20033;-65
2022/07/17 03:47:53;;;;;;;4.00;2.58;;;;;;;16.29;48.52;102579.59;5053401;28;20049;-64
2022/07/17 03:50:19;;;;;;;4.97;2.47;;;;;;;16.29;48.46;102574.16;5053260;28;20041;-65
2022/07/17 03:52:49;;;;;;;5.18;2.58;;;;;;;16.28;48.44;102567.88;5053155;28;20037;-65
2022/07/17 03:55:16;;;;;;;4.90;2.42;;;;;;;16.26;48.53;102553.56;5053058;28;20119;-66
2022/07/17 03:57:42;;;;;;;5.22;2.58;;;;;;;16.24;48.56;102555.50;5052013;28;20045;-66
2022/07/17 04:00:09;;;;;;;2.78;1.88;;;;;;;16.20;48.17;102554.84;5052724;28;20051;-65
2022/07/17 04:02:40;;;;;;;5.68;2.42;;;;;;;16.17;48.40;102556.88;5053321;28;20053;-65
2022/07/17 04:05:09;;;;;;;4.63;2.50;;;;;;;16.15;48.40;102566.97;5053010;28;20094;-65
2022/07/17 04:07:41;;;;;;;4.18;3.45;;;;;;;16.11;48.63;102568.16;5052839;28;20075;-65
2022/07/17 04:10:09;;;;;;;5.07;2.67;;;;;;;16.09;48.63;102578.22;5052940;28;20340;-65
2022/07/17 04:12:38;;;;;;;7.68;3.60;;;;;;;16.07;48.67;102577.44;5053069;28;20051;-65
2022/07/17 04:15:05;;;;;;;5.45;2.67;;;;;;;16.08;48.83;102580.06;5052621;28;20123;-66
2022/07/17 04:17:31;;;;;;;5.75;2.75;;;;;;;16.10;48.82;102588.09;5052585;28;20515;-66
2022/07/17 04:19:58;;;;;;;4.60;2.60;;;;;;;16.11;48.92;102587.97;5052878;28;20049;-66
2022/07/17 04:22:25;;;;;;;3.88;2.60;;;;;;;16.13;48.76;102591.47;5052708;28;20059;-66
2022/07/17 04:25:18;;;;;;;4.47;3.05;;;;;;;16.13;49.21;102605.00;5052743;28;20041;-66
2022/07/17 04:27:44;;;;;;;4.30;2.63;;;;;;;16.17;49.01;102600.25;5052045;28;20081;-65
2022/07/17 04:30:11;;;;;;;4.50;3.33;;;;;;;16.18;49.26;102591.16;5052638;28;20099;-66
2022/07/17 04:32:42;;;;;;;5.32;3.22;;;;;;;16.21;49.23;102593.66;5053538;28;20375;-66
2022/07/17 04:35:08;;;;;;;3.38;2.63;;;;;;;16.23;49.29;102585.44;5052502;28;20391;-65
2022/07/17 04:37:35;;;;;;;4.80;2.92;;;;;;;16.26;49.23;102596.06;5052135;28;20394;-66
2022/07/17 04:40:02;;;;;;;3.85;2.42;;;;;;;16.27;49.43;102597.81;5052332;28;20040;-66
2022/07/17 04:42:28;;;;;;;5.00;2.67;;;;;;;16.25;49.33;102599.75;5051508;28;20033;-66
2022/07/17 04:44:55;;;;;;;5.10;2.30;;;;;;;16.23;49.43;102594.44;5051784;28;20049;-66
2022/07/17 04:47:21;;;;;;;6.28;2.72;;;;;;;16.19;49.22;102596.47;5052280;28;20379;-66
2022/07/17 04:49:48;;;;;;;3.45;2.65;;;;;;;16.18;49.48;102596.56;5052305;28;20047;-66
2022/07/17 04:52:15;;;;;;;5.45;2.55;;;;;;;16.19;49.33;102601.03;5051919;28;20041;-66
2022/07/17 04:54:41;;;;;;;6.32;3.13;;;;;;;16.19;49.61;102601.03;5052272;28;20045;-66
2022/07/17 04:57:08;;;;;;;7.32;3.80;;;;;;;16.20;49.87;102603.63;5051553;28;20047;-66
2022/07/17 04:59:36;;;;;;;7.45;4.00;;;;;;;16.21;50.13;102605.38;5051962;28;20043;-66
2022/07/17 05:02:03;;;;;;;7.00;3.58;;;;;;;16.24;50.18;102609.72;5051796;28;20104;-66
2022/07/17 05:04:30;;;;;;;6.32;3.67;;;;;;;16.25;50.50;102611.47;5052179;28;20375;-66
2022/07/17 05:06:57;;;;;;;7.03;3.65;;;;;;;16.29;50.36;102612.13;5051588;28;20041;-66
2022/07/17 05:09:24;;;;;;;6.78;3.78;;;;;;;16.32;50.48;102611.91;5051600;28;20276;-65
2022/07/17 05:11:50;;;;;;;6.68;3.40;;;;;;;16.36;50.69;102608.06;5051899;28;20052;-66
2022/07/17 05:14:17;;;;;;;6.93;3.42;;;;;;;16.40;50.75;102609.59;5051933;28;20458;-66
2022/07/17 05:16:43;;;;;;;10.23;4.00;;;;;;;16.46;51.02;102611.88;5051650;28;20045;-66
2022/07/17 05:19:10;;;;;;;8.82;4.25;;;;;;;16.51;51.20;102613.31;5050447;28;20088;-66
2022/07/17 05:21:37;;;;;;;11.65;3.83;;;;;;;16.57;50.98;102611.16;5050228;28;20044;-66
2022/07/17 05:24:04;;;;;;;5.28;3.80;;;;;;;16.62;51.08;102604.44;5051388;28;20055;-65
2022/07/17 05:26:31;;;;;;;4.95;3.88;;;;;;;16.67;51.16;102601.44;5051647;28;20065;-65
2022/07/17 05:28:58;;;;;;;7.97;4.13;;;;;;;16.73;51.35;102607.31;5051549;28;20056;-67
2022/07/17 05:31:24;;;;;;;6.50;4.22;;;;;;;16.81;51.61;102614.91;5051537;28;20043;-66
2022/07/17 05:33:56;;;;;;;6.28;4.10;;;;;;;16.87;51.45;102616.34;5051505;28;20048;-66
2022/07/17 05:36:22;;;;;;;9.20;4.50;;;;;;;16.95;51.64;102622.09;5051575;28;20103;-66
2022/07/17 05:38:49;;;;;;;6.30;4.00;;;;;;;17.01;51.87;102611.69;5051165;28;20033;-66
2022/07/17 05:41:15;;;;;;;9.05;4.53;;;;;;;17.08;51.57;102599.41;5051423;28;20055;-66
2022/07/17 05:43:42;;;;;;;5.97;4.15;;;;;;;17.14;51.63;102593.56;5051439;28;20053;-67
2022/07/17 05:46:09;;;;;;;8.38;4.15;;;;;;;17.21;51.60;102585.00;5051563;28;20483;-65
2022/07/17 05:48:35;;;;;;;7.25;3.80;;;;;;;17.28;51.57;102597.16;5051398;28;20102;-66
2022/07/17 05:51:02;;;;;;;10.85;3.85;;;;;;;17.35;51.79;102591.16;5051508;28;20045;-66
2022/07/17 05:53:38;;;;;;;;;;;;;;;17.44;51.59;102600.50;5052126;28;20123;-66
2022/07/17 05:56:05;;;;;;;5.57;3.60;;;;;;;17.57;51.75;102605.91;5050468;28;20621;-66
2022/07/17 05:58:31;;;;;;;5.05;3.65;;;;;;;17.65;51.51;102598.06;5051447;28;20045;-67
2022/07/17 06:00:58;;;;;;;7.93;3.92;;;;;;;17.74;51.45;102600.16;5051658;28;20033;-67
2022/07/17 06:03:26;;;;;;;8.15;3.20;;;;;;;17.85;51.63;102600.25;5031929;28;20038;-67
2022/07/17 06:05:53;;;;;;;6.15;3.47;;;;;;;17.96;51.43;102594.03;5014005;28;20050;-67
2022/07/17 06:08:19;;;;;;;5.57;3.30;;;;;;;18.09;51.29;102600.28;5031170;28;20045;-67
2022/07/17 06:10:46;;;;;;;7.35;3.30;;;;;;;18.25;51.15;102594.53;5043483;28;20069;-66
2022/07/17 06:13:15;;;;;;;5.63;3.33;;;;;;;18.42;51.07;102597.72;5051271;28;20044;-66
2022/07/17 06:15:42;;;;;;;6.03;2.55;;;;;;;18.60;51.19;102606.34;5051122;28;20103;-66
2022/07/17 06:18:09;;;;;;;6.65;3.60;;;;;;;18.75;50.62;102598.00;5051086;28;20041;-66
2022/07/17 06:20:36;;;;;;;7.97;3.20;;;;;;;18.91;50.53;102596.69;5052245;28;20049;-66
2022/07/17 06:23:05;;;;;;;6.32;2.40;;;;;;;19.09;50.64;102588.06;5054995;28;20056;-66
2022/07/17 06:25:32;;;;;;;4.57;2.70;;;;;;;19.26;50.18;102582.13;5056229;28;20061;-66
2022/07/17 06:27:58;;;;;;;7.80;2.80;;;;;;;19.45;50.40;102589.72;5057437;28;20045;-66
2022/07/17 06:30:25;;;;;;;5.55;2.63;;;;;;;19.64;50.11;102581.78;5057380;28;20045;-67
2022/07/17 06:32:54;;;;;;;6.55;2.90;;;;;;;19.85;50.20;102580.03;5057415;28;20417;-66
2022/07/17 06:35:21;;;;;;;6.72;2.53;;;;;;;20.04;49.92;102589.41;5057056;28;20491;-67
2022/07/17 06:37:48;;;;;;;5.22;2.67;;;;;;;20.14;49.29;102587.66;5058130;28;20059;-67
2022/07/17 06:40:15;;;;;;;5.50;2.22;;;;;;;20.24;49.15;102603.13;5056084;28;20063;-67
2022/07/17 06:42:44;;;;;;;5.88;2.30;;;;;;;20.41;49.13;102603.59;5058299;28;20059;-68
2022/07/17 06:45:11;;;;;;;5.03;3.00;;;;;;;20.62;48.52;102607.22;5037561;28;20121;-67
2022/07/17 06:47:38;;;;;;;8.95;2.25;;;;;;;20.83;48.18;102599.94;5035062;28;20499;-67
2022/07/17 06:50:05;;;;;;;4.53;1.90;;;;;;;21.05;48.36;102592.59;5035636;28;20038;-67
2022/07/17 06:52:33;;;;;;;9.07;2.30;;;;;;;21.29;48.22;102600.50;5054113;28;20044;-67
2022/07/17 06:55:00;;;;;;;5.95;2.13;;;;;;;21.50;47.38;102599.47;5054318;28;20052;-67
2022/07/17 06:57:26;;;;;;;8.25;2.65;;;;;;;21.67;47.23;102610.78;5054770;28;20052;-67
2022/07/17 06:59:53;;;;;;;8.07;2.55;;;;;;;21.83;46.80;102616.59;5054444;28;20757;-67
2022/07/17 07:02:19;;;;;;;5.43;2.42;;;;;;;21.99;46.78;102618.78;5054137;28;20059;-68
2022/07/17 07:04:46;;;;;;;7.80;2.58;;;;;;;22.13;46.48;102624.75;5053573;28;20053;-67
2022/07/17 07:07:13;;;;;;;6.68;2.35;;;;;;;22.28;45.89;102635.28;5053030;28;20492;-67
2022/07/17 07:09:39;;;;;;;5.50;2.20;;;;;;;22.40;45.66;102631.44;5054176;28;20049;-67
2022/07/17 07:12:07;;;;;;;6.07;2.47;;;;;;;22.54;45.60;102641.09;5054005;28;20132;-67
2022/07/17 07:14:34;;;;;;;4.40;2.35;;;;;;;22.69;44.91;102635.03;5052788;28;20483;-67
2022/07/17 07:17:01;;;;;;;8.45;2.63;;;;;;;22.84;44.69;102643.72;5053740;28;20458;-67
2022/07/17 07:19:27;;;;;;;6.95;2.50;;;;;;;22.94;44.69;102649.19;5053617;28;20099;-67
2022/07/17 07:21:54;;;;;;;6.75;2.08;;;;;;;23.05;44.40;102638.09;5052288;28;20414;-67
2022/07/17 07:24:24;;;;;;;6.55;2.10;;;;;;;23.13;44.18;102641.81;5054037;28;20048;-67
2022/07/17 07:26:51;;;;;;;7.40;2.40;;;;;;;23.20;43.75;102636.63;5053889;28;20045;-67
2022/07/17 07:29:17;;;;;;;5.88;2.58;;;;;;;23.32;43.54;102635.44;5053631;28;20059;-68
2022/07/17 07:31:44;;;;;;;7.68;2.40;;;;;;;23.36;43.09;102636.00;5052166;28;20047;-68
2022/07/17 07:34:11;;;;;;;6.40;2.58;;;;;;;23.37;42.85;102640.47;5053256;28;20566;-67
2022/07/17 07:36:37;;;;;;;7.65;2.35;;;;;;;23.45;42.60;102640.56;5053334;28;20041;-68
2022/07/17 07:39:04;;;;;;;7.35;2.05;;;;;;;23.54;42.45;102630.59;5053387;28;20403;-68
2022/07/17 07:41:31;;;;;;;4.72;2.22;;;;;;;23.68;42.49;102636.47;5053337;28;20036;-68
2022/07/17 07:43:58;;;;;;;8.25;2.08;;;;;;;23.79;41.95;102632.69;5053790;28;20036;-65
2022/07/17 07:46:25;;;;;;;5.70;2.15;;;;;;;23.90;41.52;102637.13;5053603;28;20403;-66
2022/07/17 07:48:51;;;;;;;6.82;2.10;;;;;;;24.06;41.46;102624.44;5053085;28;20045;-67
2022/07/17 07:51:18;;;;;;;7.85;2.15;;;;;;;24.21;41.40;102633.00;5053512;28;20707;-66
2022/07/17 07:54:06;;;;;;;7.43;2.20;;;;;;;24.40;41.20;102638.41;5053516;28;20040;-64
2022/07/17 07:56:33;;;;;;;6.57;2.05;;;;;;;24.49;40.94;102633.84;5053551;28;20084;-67
2022/07/17 07:59:00;;;;;;;9.73;1.70;;;;;;;24.52;40.45;102635.41;5053085;28;20556;-67
2022/07/17 08:01:26;;;;;;;3.97;2.00;;;;;;;24.53;40.39;102637.19;5052942;28;20037;-67
2022/07/17 08:03:56;;;;;;;7.82;2.33;;;;;;;24.49;39.95;102636.59;5051800;28;20037;-67
2022/07/17 08:06:23;;;;;;;6.88;2.20;;;;;;;24.48;39.75;102640.34;5052018;28;20051;-67
2022/07/17 08:08:49;;;;;;;4.47;2.03;;;;;;;24.47;40.01;102646.88;5052621;28;20402;-67
2022/07/17 08:11:16;;;;;;;6.65;1.85;;;;;;;24.49;39.87;102654.97;5052751;28;20037;-67
2022/07/17 08:13:42;;;;;;;4.63;1.92;;;;;;;24.58;39.79;102651.31;5051387;28;20407;-67
2022/07/17 08:16:10;;;;;;;5.32;2.00;;;;;;;24.71;39.53;102649.88;5052721;28;20044;-67
2022/07/17 08:18:36;;;;;;;6.38;1.70;;;;;;;24.79;38.93;102650.97;5052541;28;20498;-67
2022/07/17 08:21:03;;;;;;;7.95;2.00;;;;;;;24.88;38.97;102645.38;5052583;28;20041;-67
2022/07/17 08:23:30;;;;;;;6.20;2.40;;;;;;;25.03;38.84;102643.81;5052400;28;20044;-67
2022/07/17 08:25:56;;;;;;;4.93;1.60;;;;;;;25.24;38.87;102632.47;5052539;28;20045;-67
2022/07/17 08:28:23;;;;;;;6.85;2.08;;;;;;;25.48;38.62;102636.41;5051400;28;20411;-66
2022/07/17 08:30:50;;;;;;;7.03;1.75;;;;;;;25.63;38.80;102638.38;5052443;28;20037;-66
2022/07/17 08:33:18;;;;;;;6.13;1.90;;;;;;;25.80;38.46;102642.09;5052499;28;20120;-67
2022/07/17 08:35:46;;;;;;;4.93;2.03;;;;;;;25.91;38.09;102639.03;5052004;28;20526;-66
2022/07/17 08:38:13;;;;;;;7.22;2.03;;;;;;;25.94;37.77;102637.84;5052512;28;20490;-66
2022/07/17 08:40:40;;;;;;;4.32;1.55;;;;;;;25.99;37.75;102635.47;5051297;28;20438;-69
2022/07/17 08:43:08;;;;;;;5.03;1.63;;;;;;;26.13;37.21;102642.25;5051370;28;20047;-68
2022/07/17 08:45:35;;;;;;;5.55;1.65;;;;;;;26.29;37.63;102632.13;5051554;28;20044;-68
2022/07/17 08:48:11;;;;;;;3.75;1.60;;;;;;;26.49;37.01;102632.72;5053044;28;20049;-68
2022/07/17 08:50:38;;;;;;;3.38;1.70;;;;;;;26.64;36.78;102635.66;5052302;28;20029;-68
2022/07/17 08:53:09;;;;;;;7.70;1.90;;;;;;;26.70;36.62;102623.06;5052831;28;20491;-68
2022/07/17 08:55:37;;;;;;;7.25;2.13;;;;;;;26.82;36.29;102632.75;5053157;28;20120;-68
2022/07/17 08:58:06;;;;;;;6.28;1.92;;;;;;;26.85;36.25;102632.41;5053336;28;20071;-68
2022/07/17 09:00:33;;;;;;;4.45;1.95;;;;;;;26.87;36.06;102628.44;5052662;28;20057;-69
2022/07/17 09:03:07;;;;;;;2.97;1.45;;;;;;;26.96;35.87;102632.06;5052115;28;20546;-68
2022/07/17 09:05:37;;;;;;;3.42;2.45;;;;;;;27.07;35.67;102634.50;5050516;28;20674;-68
2022/07/17 09:08:07;;;;;;;7.68;2.15;;;;;;;27.14;35.30;102630.00;5051836;28;20053;-68
2022/07/17 09:10:43;;;;;;;3.97;1.65;;;;;;;27.17;35.05;102628.78;5051757;28;20052;-68
2022/07/17 09:13:36;;;;;;;3.95;2.00;;;;;;;27.23;35.02;102628.94;5051511;28;20051;-68
2022/07/17 09:16:10;;;;;;;6.57;1.75;;;;;;;27.36;34.73;102627.53;5051382;28;20111;-68
2022/07/17 09:18:47;;;;;;;6.65;2.00;;;;;;;27.48;34.81;102623.34;5051741;28;20048;-68
2022/07/17 09:21:24;;;;;;;5.00;2.10;;;;;;;27.53;34.58;102620.97;5052295;28;20048;-68
2022/07/17 09:24:07;;;;;;;5.88;2.40;;;;;;;27.51;34.12;102623.03;5051706;28;20044;-68
2022/07/17 09:26:34;;;;;;;5.97;1.60;;;;;;;27.50;34.02;102622.19;5051758;28;20511;-68
2022/07/17 09:29:03;;;;;;;5.50;2.00;;;;;;;27.57;34.04;102618.69;5051186;28;20474;-68
2022/07/17 09:31:31;;;;;;;6.10;2.15;;;;;;;27.70;33.87;102619.88;5051949;28;20430;-69
2022/07/17 09:34:00;;;;;;;5.40;1.90;;;;;;;27.84;34.05;102619.13;5051361;28;20470;-67
2022/07/17 09:36:28;;;;;;;7.15;1.80;;;;;;;27.96;33.96;102627.00;5063530;28;20603;-68
2022/07/17 09:38:57;;;;;;;5.60;1.83;;;;;;;28.03;33.54;102625.25;5071989;28;20037;-68
2022/07/17 09:41:26;;;;;;;5.68;1.73;;;;;;;28.11;33.21;102622.44;5062134;28;20041;-68
2022/07/17 09:43:59;;;;;;;6.20;1.60;;;;;;;28.15;32.85;102612.75;5031566;28;20176;-68
2022/07/17 09:46:32;;;;;;;5.15;1.80;;;;;;;28.17;32.91;102616.19;5049833;28;20045;-68
2022/07/17 09:49:03;;;;;;;6.60;2.03;;;;;;;28.24;33.01;102614.47;5050865;28;20044;-68
2022/07/17 09:51:33;;;;;;;4.93;1.50;;;;;;;28.32;32.71;102613.56;5051168;28;20475;-68
2022/07/17 09:54:03;;;;;;;4.63;1.50;;;;;;;28.37;32.60;102617.50;5050334;28;20408;-68
2022/07/17 09:56:32;;;;;;;7.38;1.58;;;;;;;28.44;32.45;102612.94;5051223;28;20051;-68
2022/07/17 09:59:09;;;;;;;4.65;1.52;;;;;;;28.52;32.06;102612.03;5051214;28;20041;-71
2022/07/17 10:01:39;;;;;;;4.15;1.75;;;;;;;28.58;31.86;102610.44;5050934;28;20048;-71
2022/07/17 10:04:10;;;;;;;4.93;1.58;;;;;;;28.68;31.84;102620.19;5051012;28;20076;-70
2022/07/17 10:06:37;;;;;;;5.93;1.70;;;;;;;28.77;31.77;102616.31;5051363;28;20069;-70
2022/07/17 10:09:05;;;;;;;4.10;1.48;;;;;;;28.83;31.36;102617.47;5051155;28;20132;-70
2022/07/17 10:11:37;;;;;;;5.63;1.90;;;;;;;28.93;31.19;102620.00;5050659;28;20467;-70
2022/07/17 10:14:13;;;;;;;2.75;1.10;;;;;;;29.05;31.15;102615.78;5051203;28;20044;-70
2022/07/17 10:16:41;;;;;;;2.95;1.38;;;;;;;29.15;30.64;102621.03;5050985;28;20037;-71
2022/07/17 10:19:23;;;;;;;6.30;1.52;;;;;;;29.21;30.37;102617.50;5051255;28;20049;-71
2022/07/17 10:22:01;;;;;;;3.47;1.40;;;;;;;29.30;30.39;102617.22;5050532;28;20037;-70
2022/07/17 10:24:29;;;;;;;2.95;1.20;;;;;;;29.38;30.60;102619.03;5051273;28;20130;-70
2022/07/17 10:26:57;;;;;;;6.63;1.60;;;;;;;29.46;30.16;102618.13;5050990;28;20059;-70
2022/07/17 10:29:34;;;;;;;5.20;1.15;;;;;;;29.49;29.83;102607.53;5051139;28;20090;-71
2022/07/17 10:32:14;;;;;;;5.30;1.63;;;;;;;29.59;29.78;102621.06;5050687;28;20045;-70
2022/07/17 10:34:49;;;;;;;4.18;1.42;;;;;;;29.67;29.69;102616.28;5050931;28;20447;-70
2022/07/17 10:37:20;;;;;;;3.50;1.40;;;;;;;29.71;29.42;102620.41;5049610;28;20049;-70
2022/07/17 10:39:59;;;;;;;4.78;1.50;;;;;;;29.76;29.10;102608.78;5051194;28;20095;-71
2022/07/17 10:42:39;;;;;;;6.55;1.35;;;;;;;29.81;28.37;102610.97;5050675;28;20522;-71
2022/07/17 10:45:08;;;;;;;3.65;1.13;;;;;;;29.83;28.55;102619.94;5049503;28;20037;-70
2022/07/17 10:47:44;;;;;;;6.65;1.60;;;;;;;29.81;28.33;102617.38;5050903;28;20041;-72
2022/07/17 10:50:12;;;;;;;3.85;1.58;;;;;;;29.86;28.07;102614.00;5050669;28;20045;-71
2022/07/17 10:52:41;;;;;;;6.45;1.33;;;;;;;29.92;28.17;102608.56;5050891;28;20099;-70
2022/07/17 10:55:21;;;;;;;5.57;1.35;;;;;;;30.02;27.90;102623.00;5050708;28;20056;-70
2022/07/17 10:57:49;;;;;;;4.43;1.40;;;;;;;30.13;27.82;102615.22;5050761;28;20048;-71
2022/07/17 11:00:17;;;;;;;6.97;1.40;;;;;;;30.16;27.44;102609.28;5051051;28;20033;-70
2022/07/17 11:02:46;;;;;;;3.40;1.20;;;;;;;30.16;27.21;102601.84;5050839;28;20124;-70
2022/07/17 11:05:14;;;;;;;4.90;1.60;;;;;;;30.17;27.38;102599.91;5050774;28;20128;-70
2022/07/17 11:08:01;;;;;;;3.78;1.30;;;;;;;30.19;27.32;102598.66;5052992;28;20052;-70
2022/07/17 11:10:28;;;;;;;3.00;1.30;;;;;;;30.30;27.49;102611.16;5053090;28;20128;-71
2022/07/17 11:13:16;;;;;;;3.75;1.30;;;;;;;30.32;26.89;102612.66;5054206;28;20049;-71
2022/07/17 11:15:45;;;;;;;4.25;1.52;;;;;;;30.35;27.05;102606.72;5053970;28;20057;-71
2022/07/17 11:18:17;;;;;;;4.07;1.33;;;;;;;30.34;27.25;102616.09;5054325;28;20065;-70
2022/07/17 11:20:56;;;;;;;3.33;1.30;;;;;;;30.43;27.08;102604.88;5054398;28;20037;-71
2022/07/17 11:23:29;;;;;;;5.22;1.60;;;;;;;30.55;27.17;102608.88;5054248;28;20431;-71
2022/07/17 11:26:00;;;;;;;5.57;1.30;;;;;;;30.70;27.06;102612.47;5054213;28;20055;-68
2022/07/17 11:28:38;;;;;;;3.70;1.48;;;;;;;30.78;26.97;102604.00;5054227;28;20136;-69
2022/07/17 11:31:17;;;;;;;4.75;1.35;;;;;;;30.84;26.45;102602.34;5054104;28;20125;-68